ROMMA est une association bénévole à but non lucratif. Votre soutien est indispensable : ADHERER à ROMMA ou FAIRE un DON

Nice - (06, Alpes-Maritimes)

Côte-d'Azur (190 m)   Longitude: 07° 14' E   Latitude: 43° 43' N Station partenaire n°136
 

Détail journalier du     <<     >>

Température Precipitation Humidité Pression Vent Dir Rafale Dir. rafale Ensol.
Heure (°C) (mm) (%) (hPa) (km/h) (km/h) (min)
01:00 14.6071101506NE0
02:00 14.307110152NNE8NNE0
03:00 15.106710145NNE15N0
04:00 14.806810145NNE16N0
05:00 15.106710147NNO19NNO0
06:00 14.406910147NNO19NNO0
07:00 13.107310144N15N0
08:00 14.307010144NNO13NNO0
09:00 14.707110142NNE8NNE0
10:00 17.906010144NNE15NNE50
11:00 19.305110143OSO11OSO60
12:00 20.705010146S23SE50
13:00 19.306110139SSE21SSE20
14:00 19.506810136SSE16S10
15:00 19.107110127SE18SSE10
16:00 19.107410117SE18SE0
17:00 19.107510109SE21SE10
18:00 18.007910107SE21SE10
19:00 16.608410092ESE10E0
20:00 15.9087100900---0
21:00 15.6089101000---0
22:00 15.4090101000---0
23:00 15.4089100905NNO0
minuit 14.909010091---80

Graphique du 04-10-2019

 

Serveur OMMA